Reese, North Carolina
Current Conditions -  °F | °C
As of 5:35 AM on Sunday 26 Oct 2014 (Local Time) from KTNB Reporting Station
Clear Clear  
Wind Chill: 56°   Ceiling: Unl
Heat Index: 56°   Visibility: 10mi
Dew Point: 49°   Wind: 24mph
Humidity: 77%   Direction: 300°WNW
Pressure: 29.93"   Gusts: 36mph
Location:  36.2779°N, 81.7843°W
Report Text: KTNB 260935Z AUTO 30021G31KT 10SM CLR 14/10 A2993 RMK AO2 T01350095
Loading
Personal Weather Stations






























Interactive Weather Map
Tropical Storm Tracking
New forecast layout! Learn more

10-Day Weather Forecast

Advertisements
Track Severe Weather on mobile